createdAt,value
2022-09-27T00:00:50.035Z,10.90
2022-09-27T00:03:18.023Z,10.90
2022-09-27T00:05:45.982Z,10.90
2022-09-27T00:08:15.084Z,10.90
2022-09-27T00:10:43.044Z,11.00
2022-09-27T00:13:11.024Z,11.00
2022-09-27T00:15:40.408Z,11.00
2022-09-27T00:18:09.222Z,11.00
2022-09-27T00:20:37.185Z,11.00
2022-09-27T00:23:05.165Z,11.00
2022-09-27T00:25:33.106Z,11.00
2022-09-27T00:28:01.138Z,11.10
2022-09-27T00:30:29.572Z,11.10
2022-09-27T00:32:58.923Z,11.00
2022-09-27T00:35:27.003Z,11.00
2022-09-27T00:37:54.974Z,11.00
2022-09-27T00:40:24.303Z,11.00
2022-09-27T00:42:52.408Z,11.00
2022-09-27T00:45:20.411Z,11.10
2022-09-27T00:47:53.495Z,11.10
2022-09-27T00:50:29.744Z,11.10
2022-09-27T00:53:07.729Z,11.10
2022-09-27T00:55:41.514Z,11.10
2022-09-27T00:58:11.255Z,11.10
2022-09-27T01:00:45.375Z,11.10
2022-09-27T01:03:16.497Z,11.10
2022-09-27T01:05:45.839Z,11.00
2022-09-27T01:08:13.831Z,11.00
2022-09-27T01:10:53.366Z,11.00
2022-09-27T01:13:26.294Z,11.00
2022-09-27T01:16:01.728Z,11.00
2022-09-27T01:18:35.679Z,11.00
2022-09-27T01:21:19.119Z,11.00
2022-09-27T01:24:08.029Z,10.90
2022-09-27T01:26:54.447Z,10.90
2022-09-27T01:29:36.538Z,10.90
2022-09-27T01:32:10.139Z,10.90
2022-09-27T01:34:46.436Z,10.90
2022-09-27T01:37:22.300Z,10.90
2022-09-27T01:39:54.576Z,10.90
2022-09-27T01:42:27.131Z,10.90
2022-09-27T01:45:01.248Z,10.90
2022-09-27T01:47:36.597Z,10.90
2022-09-27T01:50:08.500Z,10.90
2022-09-27T01:52:40.347Z,10.90
2022-09-27T01:55:12.202Z,10.90
2022-09-27T01:57:44.054Z,10.90
2022-09-27T02:00:13.915Z,10.90
2022-09-27T02:02:48.463Z,10.90
2022-09-27T02:05:18.197Z,10.90
2022-09-27T02:07:52.547Z,10.90
2022-09-27T02:10:24.716Z,10.90
2022-09-27T02:12:58.184Z,10.90
2022-09-27T02:15:28.120Z,10.90
2022-09-27T02:18:02.313Z,10.80
2022-09-27T02:20:34.764Z,10.90
2022-09-27T02:23:11.787Z,10.90
2022-09-27T02:25:45.720Z,10.90
2022-09-27T02:28:26.277Z,10.90
2022-09-27T02:30:55.863Z,10.90
2022-09-27T02:33:31.314Z,10.90
2022-09-27T02:35:59.325Z,10.80
2022-09-27T02:38:27.477Z,10.90
2022-09-27T02:40:55.624Z,10.90
2022-09-27T02:43:26.252Z,10.80
2022-09-27T02:46:10.217Z,10.80
2022-09-27T02:48:49.906Z,10.80
2022-09-27T02:51:35.749Z,10.90
2022-09-27T02:54:14.767Z,10.90
2022-09-27T02:56:50.664Z,10.80
2022-09-27T02:59:28.241Z,10.80
2022-09-27T03:02:12.607Z,10.90
2022-09-27T03:04:48.879Z,10.90
2022-09-27T03:07:17.316Z,10.90
2022-09-27T03:09:48.174Z,10.80
2022-09-27T03:12:20.713Z,10.80
2022-09-27T03:14:49.119Z,10.80
2022-09-27T03:17:17.145Z,10.80
2022-09-27T03:19:49.335Z,10.80
2022-09-27T03:22:17.730Z,10.80
2022-09-27T03:24:45.959Z,10.80
2022-09-27T03:27:14.149Z,10.80
2022-09-27T03:29:42.132Z,10.80
2022-09-27T03:32:10.740Z,10.80
2022-09-27T03:34:38.713Z,10.80
2022-09-27T03:37:08.371Z,10.80
2022-09-27T03:39:36.406Z,10.80
2022-09-27T03:42:04.533Z,10.70
2022-09-27T03:44:32.926Z,10.70
2022-09-27T03:47:01.033Z,10.70
2022-09-27T03:49:29.196Z,10.70
2022-09-27T03:51:57.158Z,10.70
2022-09-27T03:54:26.481Z,10.70
2022-09-27T03:56:54.439Z,10.70
2022-09-27T03:59:22.446Z,10.70
2022-09-27T04:01:50.448Z,10.70
2022-09-27T04:04:18.799Z,10.70
2022-09-27T04:06:46.743Z,10.70
2022-09-27T04:09:14.813Z,10.80
2022-09-27T04:11:44.281Z,10.70
2022-09-27T04:14:13.123Z,10.70
2022-09-27T04:16:41.590Z,10.70
2022-09-27T04:19:10.801Z,10.70
2022-09-27T04:21:38.874Z,10.70
2022-09-27T04:24:07.131Z,10.70
2022-09-27T04:26:35.115Z,10.60
2022-09-27T04:29:04.504Z,10.70
2022-09-27T04:31:33.223Z,10.70
2022-09-27T04:34:01.235Z,10.70
2022-09-27T04:36:28.810Z,10.60
2022-09-27T04:38:57.990Z,10.60
2022-09-27T04:41:26.578Z,10.60
2022-09-27T04:43:58.960Z,10.60
2022-09-27T04:46:31.700Z,10.60
2022-09-27T04:49:00.187Z,10.60
2022-09-27T04:51:28.287Z,10.60
2022-09-27T04:53:57.512Z,10.60
2022-09-27T04:56:25.537Z,10.60
2022-09-27T04:58:53.910Z,10.50
2022-09-27T05:01:22.978Z,10.50
2022-09-27T05:03:52.396Z,10.50
2022-09-27T05:06:20.717Z,10.50
2022-09-27T05:08:48.685Z,10.50
2022-09-27T05:11:16.680Z,10.50
2022-09-27T05:13:44.634Z,10.40
2022-09-27T05:16:12.678Z,10.50
2022-09-27T05:18:41.858Z,10.40
2022-09-27T05:21:11.275Z,10.50
2022-09-27T05:23:39.236Z,10.40
2022-09-27T05:26:08.427Z,10.50
2022-09-27T05:28:36.539Z,10.50
2022-09-27T05:31:04.682Z,10.50
2022-09-27T05:33:34.410Z,10.50
2022-09-27T05:36:03.818Z,10.50
2022-09-27T05:38:33.130Z,10.50
2022-09-27T05:41:01.305Z,10.50
2022-09-27T05:43:29.432Z,10.50
2022-09-27T05:45:57.447Z,10.50
2022-09-27T05:48:25.426Z,10.50
2022-09-27T05:50:53.445Z,10.50
2022-09-27T05:53:21.606Z,10.50
2022-09-27T05:55:51.103Z,10.50
2022-09-27T05:58:19.086Z,10.50
2022-09-27T06:00:47.258Z,10.50
2022-09-27T06:03:15.252Z,10.50
2022-09-27T06:05:45.987Z,10.50
2022-09-27T06:08:16.216Z,10.50
2022-09-27T06:10:44.291Z,10.50
2022-09-27T06:13:15.495Z,10.50
2022-09-27T06:15:45.527Z,10.60
2022-09-27T06:18:16.274Z,10.60
2022-09-27T06:20:44.293Z,10.50
2022-09-27T06:23:14.683Z,10.60
2022-09-27T06:25:43.145Z,10.60
2022-09-27T06:28:11.573Z,10.60
2022-09-27T06:30:42.635Z,10.60
2022-09-27T06:33:13.227Z,10.60
2022-09-27T06:35:41.979Z,10.60
2022-09-27T06:38:12.315Z,10.70
2022-09-27T06:40:40.771Z,10.70
2022-09-27T06:43:10.495Z,10.70
2022-09-27T06:45:40.427Z,10.70
2022-09-27T06:48:10.361Z,10.70
2022-09-27T06:50:40.524Z,10.80
2022-09-27T06:53:10.636Z,10.90
2022-09-27T06:55:39.311Z,10.90
2022-09-27T06:58:25.431Z,11.00
2022-09-27T07:00:55.200Z,11.10
2022-09-27T07:03:35.336Z,11.10
2022-09-27T07:06:06.636Z,11.10
2022-09-27T07:08:35.958Z,11.20
2022-09-27T07:11:06.154Z,11.30
2022-09-27T07:13:37.120Z,11.30
2022-09-27T07:16:06.879Z,11.30
2022-09-27T07:18:34.919Z,11.30
2022-09-27T07:21:02.939Z,11.30
2022-09-27T07:23:30.895Z,11.30
2022-09-27T07:26:04.269Z,11.40
2022-09-27T07:28:32.308Z,11.30
2022-09-27T07:31:00.517Z,11.40
2022-09-27T07:33:30.238Z,11.40
2022-09-27T07:35:58.344Z,11.40
2022-09-27T07:38:26.334Z,11.40
2022-09-27T07:40:54.409Z,11.40
2022-09-27T07:43:22.410Z,11.40
2022-09-27T07:45:50.406Z,11.40
2022-09-27T07:48:18.457Z,11.50
2022-09-27T07:50:48.415Z,11.60
2022-09-27T07:53:16.397Z,11.60
2022-09-27T07:55:44.373Z,11.80
2022-09-27T07:58:13.702Z,11.80
2022-09-27T08:00:42.115Z,12.00
2022-09-27T08:03:14.830Z,12.30
2022-09-27T08:05:43.027Z,12.40
2022-09-27T08:08:12.602Z,12.60
2022-09-27T08:10:44.194Z,12.60
2022-09-27T08:13:13.172Z,12.60
2022-09-27T08:15:41.212Z,12.60
2022-09-27T08:18:09.536Z,12.30
2022-09-27T08:20:37.794Z,12.30
2022-09-27T08:23:05.755Z,12.10
2022-09-27T08:25:35.274Z,11.90
2022-09-27T08:28:05.416Z,11.80
2022-09-27T08:30:33.891Z,11.80
2022-09-27T08:33:03.457Z,11.80
2022-09-27T08:35:33.967Z,11.90
2022-09-27T08:38:03.710Z,12.10
2022-09-27T08:40:47.579Z,12.20
2022-09-27T08:43:22.071Z,12.10
2022-09-27T08:46:03.124Z,12.30
2022-09-27T08:48:32.712Z,12.50
2022-09-27T08:51:03.707Z,12.70
2022-09-27T08:53:35.595Z,12.80
2022-09-27T08:56:08.598Z,12.90
2022-09-27T08:58:40.526Z,12.70
2022-09-27T09:01:15.543Z,12.70
2022-09-27T09:03:49.958Z,12.70
2022-09-27T09:06:24.902Z,12.60
2022-09-27T09:09:03.866Z,12.60
2022-09-27T09:12:05.263Z,12.70
2022-09-27T09:15:01.848Z,12.80
2022-09-27T09:17:40.751Z,12.80
2022-09-27T09:20:22.932Z,12.80
2022-09-27T09:23:19.631Z,12.90
2022-09-27T09:25:55.242Z,12.90
2022-09-27T09:28:38.995Z,12.70
2022-09-27T09:31:13.911Z,12.70
2022-09-27T09:33:47.330Z,12.60
2022-09-27T09:36:23.815Z,12.60
2022-09-27T09:38:55.755Z,12.80
2022-09-27T09:41:29.858Z,13.00
2022-09-27T09:44:06.409Z,13.00
2022-09-27T09:46:42.301Z,13.00
2022-09-27T09:49:19.393Z,13.10
2022-09-27T09:51:51.200Z,13.10
2022-09-27T09:54:25.651Z,13.10
2022-09-27T09:57:00.449Z,13.20
2022-09-27T09:59:35.699Z,13.10
2022-09-27T10:02:22.693Z,13.00
2022-09-27T10:04:50.784Z,12.80
2022-09-27T10:07:22.027Z,12.80
2022-09-27T10:09:50.724Z,12.80
2022-09-27T10:12:18.922Z,12.70
2022-09-27T10:14:50.883Z,12.60
2022-09-27T10:17:22.611Z,12.70
2022-09-27T10:19:54.239Z,12.60
2022-09-27T10:22:27.832Z,12.70
2022-09-27T10:24:58.854Z,12.60
2022-09-27T10:27:27.690Z,12.50
2022-09-27T10:30:00.902Z,12.50
2022-09-27T10:32:33.203Z,12.60
2022-09-27T10:35:24.164Z,12.50
2022-09-27T10:37:53.306Z,12.40
2022-09-27T10:40:28.442Z,12.30
2022-09-27T10:42:56.836Z,12.20
2022-09-27T10:45:31.466Z,12.20
2022-09-27T10:48:00.818Z,12.10
2022-09-27T10:53:22.096Z,12.30
2022-09-27T10:55:51.998Z,12.50
2022-09-27T10:58:25.894Z,12.60
2022-09-27T11:01:02.506Z,12.90
2022-09-27T11:03:31.591Z,13.10
2022-09-27T11:06:00.277Z,13.00
2022-09-27T11:08:33.825Z,13.00
2022-09-27T11:11:06.567Z,13.20
2022-09-27T11:13:36.151Z,13.20
2022-09-27T11:16:20.417Z,13.10
2022-09-27T11:18:59.162Z,13.30
2022-09-27T11:21:36.896Z,13.10
2022-09-27T11:24:28.684Z,12.90
2022-09-27T11:27:05.793Z,12.70
2022-09-27T11:29:46.478Z,12.40
2022-09-27T11:32:31.018Z,12.30
2022-09-27T11:35:22.790Z,12.20
2022-09-27T11:38:00.581Z,12.20
2022-09-27T11:40:36.367Z,12.40
2022-09-27T11:43:23.804Z,12.60
2022-09-27T11:46:16.803Z,12.90
2022-09-27T11:49:10.997Z,13.00
2022-09-27T11:52:06.199Z,12.90
2022-09-27T11:55:04.697Z,12.90
2022-09-27T11:57:37.406Z,12.90
2022-09-27T12:00:20.651Z,12.80
2022-09-27T12:03:25.402Z,12.80
2022-09-27T12:06:07.870Z,12.60
2022-09-27T12:08:59.686Z,12.60
2022-09-27T12:11:31.892Z,12.70
2022-09-27T12:14:04.099Z,12.70
2022-09-27T12:16:33.380Z,12.80
2022-09-27T12:19:04.263Z,12.80
2022-09-27T12:21:35.214Z,12.90
2022-09-27T12:24:04.560Z,12.90
2022-09-27T12:26:38.763Z,12.80
2022-09-27T12:29:13.972Z,12.80
2022-09-27T12:31:47.275Z,12.80
2022-09-27T12:34:20.272Z,12.90
2022-09-27T12:36:57.194Z,12.90
2022-09-27T12:39:29.753Z,12.80
2022-09-27T12:42:06.038Z,12.70
2022-09-27T12:44:40.463Z,12.60
2022-09-27T12:47:16.970Z,12.50
2022-09-27T12:49:57.610Z,12.60
2022-09-27T12:52:35.140Z,12.70
2022-09-27T12:55:20.127Z,12.90
2022-09-27T12:57:59.345Z,13.10
2022-09-27T13:00:31.475Z,13.00
2022-09-27T13:03:27.898Z,13.20
2022-09-27T13:06:34.860Z,13.40
2022-09-27T13:09:35.955Z,13.50
2022-09-27T13:12:10.960Z,13.50
2022-09-27T13:14:45.461Z,13.40
2022-09-27T13:17:47.128Z,13.20
2022-09-27T13:20:42.592Z,13.10
2022-09-27T13:23:59.164Z,12.90
2022-09-27T13:26:49.906Z,12.80
2022-09-27T13:29:34.744Z,12.80
2022-09-27T13:32:22.688Z,12.80
2022-09-27T13:34:53.753Z,12.70
2022-09-27T13:37:51.626Z,12.70
2022-09-27T13:40:29.051Z,12.60
2022-09-27T13:43:34.446Z,12.60
2022-09-27T13:46:07.882Z,12.60
2022-09-27T13:48:47.348Z,12.50
2022-09-27T13:51:29.041Z,12.60
2022-09-27T13:53:59.001Z,12.60
2022-09-27T13:56:52.933Z,12.70
2022-09-27T13:59:26.930Z,12.80
2022-09-27T14:01:57.523Z,12.80
2022-09-27T14:04:29.517Z,12.70
2022-09-27T14:07:00.061Z,12.70
2022-09-27T14:09:32.012Z,12.80
2022-09-27T14:12:03.834Z,12.70
2022-09-27T14:14:34.793Z,12.60
2022-09-27T14:17:06.581Z,12.60
2022-09-27T14:19:41.318Z,12.60
2022-09-27T14:22:14.205Z,12.60
2022-09-27T14:24:47.204Z,12.70
2022-09-27T14:27:18.411Z,12.80
2022-09-27T14:29:51.061Z,12.90
2022-09-27T14:32:21.052Z,13.00
2022-09-27T14:35:04.852Z,13.00
2022-09-27T14:37:31.942Z,13.00
2022-09-27T14:40:05.704Z,13.10
2022-09-27T14:42:36.610Z,13.10
2022-09-27T14:45:17.338Z,13.10
2022-09-27T14:47:49.902Z,13.10
2022-09-27T14:50:21.352Z,13.10
2022-09-27T14:52:52.122Z,13.10
2022-09-27T14:55:22.098Z,13.00
2022-09-27T14:57:53.602Z,12.90
2022-09-27T15:00:26.236Z,12.90
2022-09-27T15:02:55.701Z,12.80
2022-09-27T15:05:26.302Z,12.80
2022-09-27T15:07:56.349Z,12.70
2022-09-27T15:10:27.911Z,12.70
2022-09-27T15:12:59.942Z,12.60
2022-09-27T15:15:31.906Z,12.60
2022-09-27T15:18:00.534Z,12.50
2022-09-27T15:20:34.840Z,12.60
2022-09-27T15:23:04.815Z,12.40
2022-09-27T15:25:35.465Z,12.30
2022-09-27T15:28:06.349Z,12.20
2022-09-27T15:30:40.292Z,12.10
2022-09-27T15:33:24.914Z,12.10
2022-09-27T15:35:54.799Z,12.00
2022-09-27T15:38:27.851Z,12.00
2022-09-27T15:41:05.430Z,12.10
2022-09-27T15:43:37.092Z,12.10
2022-09-27T15:46:26.082Z,12.10
2022-09-27T15:49:21.275Z,11.90
2022-09-27T15:51:50.754Z,11.80
2022-09-27T15:54:22.047Z,11.60
2022-09-27T15:56:55.204Z,11.50
2022-09-27T15:59:26.712Z,11.50
2022-09-27T16:01:59.013Z,11.40
2022-09-27T16:04:27.586Z,11.40
2022-09-27T16:06:55.826Z,11.40
2022-09-27T16:09:24.054Z,11.40
2022-09-27T16:11:52.213Z,11.40
2022-09-27T16:14:20.730Z,11.40
2022-09-27T16:16:51.881Z,11.40
2022-09-27T16:19:21.407Z,11.40
2022-09-27T16:21:49.667Z,11.40
2022-09-27T16:24:18.236Z,11.40
2022-09-27T16:26:46.230Z,11.40
2022-09-27T16:29:15.705Z,11.30
2022-09-27T16:31:44.290Z,11.30
2022-09-27T16:34:13.364Z,11.20
2022-09-27T16:36:42.750Z,11.20
2022-09-27T16:39:13.846Z,11.20
2022-09-27T16:41:42.309Z,11.20
2022-09-27T16:44:12.147Z,11.00
2022-09-27T16:46:41.592Z,11.00
2022-09-27T16:49:30.449Z,11.00
2022-09-27T16:52:02.117Z,11.00
2022-09-27T16:54:30.613Z,10.90
2022-09-27T16:56:59.722Z,10.90
2022-09-27T16:59:28.519Z,10.90
2022-09-27T17:01:58.046Z,10.90
2022-09-27T17:04:27.516Z,10.90
2022-09-27T17:06:56.204Z,10.90
2022-09-27T17:09:25.666Z,10.90
2022-09-27T17:11:55.400Z,10.80
2022-09-27T17:14:23.839Z,10.70
2022-09-27T17:16:52.100Z,10.80
2022-09-27T17:19:20.389Z,10.70
2022-09-27T17:21:48.658Z,10.70
2022-09-27T17:24:16.957Z,10.70
2022-09-27T17:26:46.510Z,10.70
2022-09-27T17:29:15.222Z,10.60
2022-09-27T17:31:43.957Z,10.60
2022-09-27T17:34:15.593Z,10.60
2022-09-27T17:36:48.362Z,10.50
2022-09-27T17:39:18.410Z,10.50
2022-09-27T17:41:48.848Z,10.50
2022-09-27T17:44:19.375Z,10.50
2022-09-27T17:47:09.111Z,10.40
2022-09-27T17:49:54.535Z,10.40
2022-09-27T17:52:23.503Z,10.40
2022-09-27T17:54:51.793Z,10.40
2022-09-27T17:57:21.133Z,10.40
2022-09-27T17:59:49.099Z,10.40
2022-09-27T18:02:17.121Z,10.30
2022-09-27T18:04:45.138Z,10.30
2022-09-27T18:07:13.917Z,10.30
2022-09-27T18:09:41.952Z,10.30
2022-09-27T18:12:09.954Z,10.30
2022-09-27T18:14:39.283Z,10.20
2022-09-27T18:17:07.421Z,10.20
2022-09-27T18:19:35.431Z,10.30
2022-09-27T18:22:03.935Z,10.30
2022-09-27T18:24:32.212Z,10.20
2022-09-27T18:27:01.001Z,10.20
2022-09-27T18:29:29.021Z,10.20
2022-09-27T18:31:58.436Z,10.20
2022-09-27T18:34:26.502Z,10.20
2022-09-27T18:36:54.523Z,10.20
2022-09-27T18:39:22.503Z,10.20
2022-09-27T18:41:50.479Z,10.20
2022-09-27T18:44:19.172Z,10.20
2022-09-27T18:46:47.549Z,10.20
2022-09-27T18:49:16.905Z,10.20
2022-09-27T18:51:47.129Z,10.10
2022-09-27T18:54:18.418Z,10.10
2022-09-27T18:56:47.065Z,10.00
2022-09-27T18:59:15.752Z,10.00
2022-09-27T19:01:45.375Z,10.00
2022-09-27T19:04:20.336Z,9.90
2022-09-27T19:06:49.652Z,9.90
2022-09-27T19:09:17.750Z,9.80
2022-09-27T19:11:45.886Z,9.90
2022-09-27T19:14:17.022Z,9.90
2022-09-27T19:16:47.115Z,9.80
2022-09-27T19:19:17.514Z,9.80
2022-09-27T19:21:45.769Z,9.80
2022-09-27T19:24:15.177Z,9.80
2022-09-27T19:26:43.441Z,9.90
2022-09-27T19:29:11.682Z,9.90
2022-09-27T19:31:39.899Z,9.90
2022-09-27T19:34:07.931Z,9.90
2022-09-27T19:36:37.271Z,9.90
2022-09-27T19:39:05.352Z,9.90
2022-09-27T19:41:33.375Z,9.90
2022-09-27T19:44:01.693Z,9.90
2022-09-27T19:46:29.810Z,9.80
2022-09-27T19:48:57.872Z,9.80
2022-09-27T19:51:28.092Z,9.70
2022-09-27T19:53:57.965Z,9.70
2022-09-27T19:56:26.450Z,9.70
2022-09-27T19:58:55.487Z,9.60
2022-09-27T20:01:25.414Z,9.60
2022-09-27T20:03:56.816Z,9.60
2022-09-27T20:06:24.798Z,9.60
2022-09-27T20:08:53.078Z,9.60
2022-09-27T20:11:24.023Z,9.60
2022-09-27T20:13:53.657Z,9.60
2022-09-27T20:16:23.739Z,9.50
2022-09-27T20:18:53.993Z,9.50
2022-09-27T20:21:23.334Z,9.50
2022-09-27T20:23:52.210Z,9.50
2022-09-27T20:26:23.904Z,9.50
2022-09-27T20:28:53.205Z,9.50
2022-09-27T20:31:23.555Z,9.60
2022-09-27T20:33:51.803Z,9.60
2022-09-27T20:36:21.883Z,9.60
2022-09-27T20:38:51.703Z,9.50
2022-09-27T20:41:22.384Z,9.50
2022-09-27T20:43:53.989Z,9.50
2022-09-27T20:46:22.734Z,9.50
2022-09-27T20:48:53.736Z,9.50
2022-09-27T20:51:22.013Z,9.50
2022-09-27T20:53:51.276Z,9.40
2022-09-27T20:56:22.893Z,9.40
2022-09-27T20:58:52.356Z,9.50
2022-09-27T21:01:21.824Z,9.40
2022-09-27T21:03:53.847Z,9.50
2022-09-27T21:06:22.985Z,9.50
2022-09-27T21:08:51.678Z,9.40
2022-09-27T21:11:20.694Z,9.40
2022-09-27T21:13:51.111Z,9.50
2022-09-27T21:16:21.188Z,9.50
2022-09-27T21:18:49.930Z,9.50
2022-09-27T21:21:18.343Z,9.40
2022-09-27T21:23:47.137Z,9.40
2022-09-27T21:26:19.089Z,9.40
2022-09-27T21:28:49.705Z,9.50
2022-09-27T21:31:22.855Z,9.40
2022-09-27T21:33:53.980Z,9.40
2022-09-27T21:36:23.601Z,9.40
2022-09-27T21:38:52.216Z,9.40
2022-09-27T21:41:20.382Z,9.30
2022-09-27T21:43:50.755Z,9.40
2022-09-27T21:46:20.276Z,9.30
2022-09-27T21:48:50.079Z,9.40
2022-09-27T21:51:20.160Z,9.40
2022-09-27T21:53:52.075Z,9.40
2022-09-27T21:56:20.619Z,9.50
2022-09-27T21:58:50.792Z,9.50
2022-09-27T22:01:20.498Z,9.50
2022-09-27T22:03:51.496Z,9.50
2022-09-27T22:06:21.195Z,9.50
2022-09-27T22:08:50.734Z,9.40
2022-09-27T22:11:21.750Z,9.40
2022-09-27T22:13:51.721Z,9.40
2022-09-27T22:16:21.466Z,9.40
2022-09-27T22:18:51.566Z,9.40
2022-09-27T22:21:21.748Z,9.40
2022-09-27T22:23:53.833Z,9.40
2022-09-27T22:26:25.439Z,9.40
2022-09-27T22:28:55.312Z,9.40
2022-09-27T22:31:23.724Z,9.40
2022-09-27T22:33:53.778Z,9.40
2022-09-27T22:36:22.317Z,9.40
2022-09-27T22:38:51.060Z,9.40
2022-09-27T22:41:19.417Z,9.40
2022-09-27T22:43:47.907Z,9.40
2022-09-27T22:46:17.477Z,9.30
2022-09-27T22:48:45.557Z,9.30
2022-09-27T22:51:13.655Z,9.20
2022-09-27T22:53:41.643Z,9.30
2022-09-27T22:56:14.077Z,9.30
2022-09-27T22:58:43.969Z,9.30
2022-09-27T23:01:14.278Z,9.30
2022-09-27T23:03:44.442Z,9.30
2022-09-27T23:06:12.678Z,9.30
2022-09-27T23:08:40.840Z,9.30
2022-09-27T23:11:09.887Z,9.30
2022-09-27T23:13:39.952Z,9.40
2022-09-27T23:16:10.488Z,9.30
2022-09-27T23:18:38.834Z,9.30
2022-09-27T23:21:09.537Z,9.40
2022-09-27T23:23:40.701Z,9.40
2022-09-27T23:26:10.304Z,9.40
2022-09-27T23:28:38.779Z,9.40
2022-09-27T23:31:08.672Z,9.40
2022-09-27T23:33:38.262Z,9.40
2022-09-27T23:36:10.329Z,9.40
2022-09-27T23:38:40.352Z,9.30
2022-09-27T23:41:09.302Z,9.30
2022-09-27T23:43:37.555Z,9.40
2022-09-27T23:46:06.751Z,9.40
2022-09-27T23:48:35.415Z,9.30
2022-09-27T23:51:04.944Z,9.30
2022-09-27T23:53:34.599Z,9.30
2022-09-27T23:56:04.462Z,9.30
2022-09-27T23:58:34.169Z,9.30
